createdAt,value
2023-02-17T00:00:57.852Z,2.80
2023-02-17T00:03:25.317Z,3.00
2023-02-17T00:05:52.507Z,3.20
2023-02-17T00:08:19.693Z,3.30
2023-02-17T00:10:55.736Z,3.50
2023-02-17T00:13:22.857Z,3.60
2023-02-17T00:15:49.963Z,3.80
2023-02-17T00:18:17.111Z,3.90
2023-02-17T00:20:44.249Z,3.90
2023-02-17T00:23:11.361Z,3.90
2023-02-17T00:25:39.057Z,3.80
2023-02-17T00:28:06.388Z,3.60
2023-02-17T00:30:33.601Z,3.50
2023-02-17T00:33:01.039Z,3.30
2023-02-17T00:35:28.185Z,3.20
2023-02-17T00:37:55.309Z,3.00
2023-02-17T00:40:22.485Z,2.90
2023-02-17T00:42:49.679Z,2.90
2023-02-17T00:45:17.160Z,2.80
2023-02-17T00:47:44.230Z,2.70
2023-02-17T00:50:11.554Z,2.60
2023-02-17T00:52:38.645Z,2.60
2023-02-17T00:55:06.064Z,2.50
2023-02-17T00:57:33.172Z,2.50
2023-02-17T01:00:00.316Z,2.50
2023-02-17T01:02:27.501Z,2.40
2023-02-17T01:04:54.789Z,2.30
2023-02-17T01:07:21.984Z,2.30
2023-02-17T01:09:49.042Z,2.30
2023-02-17T01:12:16.185Z,2.20
2023-02-17T01:14:43.336Z,2.20
2023-02-17T01:17:10.577Z,2.10
2023-02-17T01:19:37.670Z,2.10
2023-02-17T01:22:04.831Z,2.00
2023-02-17T01:24:31.982Z,2.00
2023-02-17T01:26:59.090Z,1.90
2023-02-17T01:29:27.196Z,1.90
2023-02-17T01:31:54.424Z,1.80
2023-02-17T01:34:21.550Z,1.60
2023-02-17T01:36:48.868Z,1.60
2023-02-17T01:39:16.570Z,1.40
2023-02-17T01:41:44.596Z,1.30
2023-02-17T01:44:20.895Z,1.20
2023-02-17T01:46:50.067Z,1.10
2023-02-17T01:49:27.786Z,1.00
2023-02-17T01:52:25.829Z,1.00
2023-02-17T01:54:56.891Z,0.90
2023-02-17T01:57:27.365Z,0.90
2023-02-17T01:59:54.834Z,1.00
2023-02-17T02:02:22.533Z,1.00
2023-02-17T02:04:53.291Z,1.10
2023-02-17T02:07:33.323Z,1.10
2023-02-17T02:10:00.909Z,1.10
2023-02-17T02:12:33.596Z,1.20
2023-02-17T02:15:05.289Z,1.20
2023-02-17T02:17:35.285Z,1.20
2023-02-17T02:20:20.707Z,1.30
2023-02-17T02:22:59.418Z,1.30
2023-02-17T02:25:51.077Z,1.20
2023-02-17T02:28:37.046Z,1.20
2023-02-17T02:31:20.562Z,1.20
2023-02-17T02:33:53.641Z,1.30
2023-02-17T02:36:32.991Z,1.30
2023-02-17T02:39:04.482Z,1.30
2023-02-17T02:41:36.383Z,1.20
2023-02-17T02:44:09.464Z,1.30
2023-02-17T02:46:36.828Z,1.30
2023-02-17T02:49:05.170Z,1.40
2023-02-17T02:51:48.029Z,1.40
2023-02-17T02:54:34.152Z,1.50
2023-02-17T02:57:07.335Z,1.50
2023-02-17T03:00:12.608Z,1.60
2023-02-17T03:02:42.872Z,1.70
2023-02-17T03:05:18.382Z,1.80
2023-02-17T03:07:54.368Z,1.90
2023-02-17T03:10:22.228Z,2.00
2023-02-17T03:12:49.586Z,2.00
2023-02-17T03:15:21.661Z,2.10
2023-02-17T03:17:48.755Z,2.10
2023-02-17T03:20:16.158Z,2.20
2023-02-17T03:22:48.492Z,2.30
2023-02-17T03:25:16.584Z,2.30
2023-02-17T03:27:43.721Z,2.30
2023-02-17T03:30:11.527Z,2.40
2023-02-17T03:32:38.682Z,2.50
2023-02-17T03:35:06.152Z,2.60
2023-02-17T03:37:33.270Z,2.60
2023-02-17T03:40:00.540Z,2.70
2023-02-17T03:42:27.719Z,2.70
2023-02-17T03:44:54.856Z,2.80
2023-02-17T03:47:21.958Z,2.80
2023-02-17T03:49:49.076Z,2.80
2023-02-17T03:52:16.704Z,2.90
2023-02-17T03:54:43.893Z,2.90
2023-02-17T03:57:11.085Z,3.00
2023-02-17T03:59:38.207Z,3.00
2023-02-17T04:02:05.320Z,3.00
2023-02-17T04:04:32.478Z,3.00
2023-02-17T04:06:59.575Z,3.00
2023-02-17T04:09:26.706Z,3.00
2023-02-17T04:11:53.776Z,3.00
2023-02-17T04:14:20.874Z,3.00
2023-02-17T04:16:47.949Z,3.10
2023-02-17T04:19:15.069Z,3.10
2023-02-17T04:21:42.157Z,3.10
2023-02-17T04:24:09.363Z,3.10
2023-02-17T04:26:36.444Z,3.10
2023-02-17T04:29:05.021Z,3.00
2023-02-17T04:31:32.214Z,3.00
2023-02-17T04:33:59.356Z,3.00
2023-02-17T04:36:26.611Z,3.00
2023-02-17T04:38:53.757Z,3.00
2023-02-17T04:41:20.845Z,3.00
2023-02-17T04:43:47.999Z,3.00
2023-02-17T04:46:15.159Z,3.00
2023-02-17T04:48:42.352Z,3.00
2023-02-17T04:51:09.567Z,3.00
2023-02-17T04:53:36.747Z,3.00
2023-02-17T04:56:04.428Z,2.90
2023-02-17T04:58:31.708Z,2.90
2023-02-17T05:01:00.860Z,3.00
2023-02-17T05:03:27.953Z,3.00
2023-02-17T05:05:55.100Z,3.10
2023-02-17T05:08:22.271Z,3.10
2023-02-17T05:10:51.440Z,3.10
2023-02-17T05:13:19.170Z,3.20
2023-02-17T05:15:46.921Z,3.20
2023-02-17T05:18:14.412Z,3.20
2023-02-17T05:20:41.693Z,3.20
2023-02-17T05:23:08.805Z,3.10
2023-02-17T05:25:35.971Z,3.10
2023-02-17T05:28:03.114Z,3.10
2023-02-17T05:30:30.295Z,3.10
2023-02-17T05:32:57.466Z,3.10
2023-02-17T05:35:24.763Z,3.10
2023-02-17T05:37:51.998Z,3.10
2023-02-17T05:40:19.275Z,3.20
2023-02-17T05:42:46.367Z,3.20
2023-02-17T05:45:13.548Z,3.30
2023-02-17T05:47:40.650Z,3.30
2023-02-17T05:50:08.437Z,3.30
2023-02-17T05:52:35.577Z,3.40
2023-02-17T05:55:04.787Z,3.40
2023-02-17T05:57:32.308Z,3.40
2023-02-17T05:59:59.358Z,3.40
2023-02-17T06:02:26.558Z,3.40
2023-02-17T06:04:53.672Z,3.40
2023-02-17T06:07:20.885Z,3.40
2023-02-17T06:09:47.964Z,3.40
2023-02-17T06:12:15.105Z,3.30
2023-02-17T06:14:42.627Z,3.30
2023-02-17T06:17:10.573Z,3.30
2023-02-17T06:19:37.721Z,3.30
2023-02-17T06:22:04.882Z,3.30
2023-02-17T06:24:31.981Z,3.30
2023-02-17T06:26:59.050Z,3.30
2023-02-17T06:29:27.708Z,3.40
2023-02-17T06:31:55.138Z,3.40
2023-02-17T06:34:22.505Z,3.40
2023-02-17T06:36:49.789Z,3.30
2023-02-17T06:39:16.953Z,3.30
2023-02-17T06:41:44.175Z,3.30
2023-02-17T06:44:11.347Z,3.20
2023-02-17T06:46:38.692Z,3.20
2023-02-17T06:49:05.935Z,3.10
2023-02-17T06:51:33.090Z,3.10
2023-02-17T06:54:00.162Z,3.10
2023-02-17T06:56:27.665Z,3.10
2023-02-17T06:58:54.841Z,3.10
2023-02-17T07:01:26.267Z,3.20
2023-02-17T07:03:54.969Z,3.30
2023-02-17T07:06:23.787Z,3.30
2023-02-17T07:08:51.097Z,3.40
2023-02-17T07:11:18.721Z,3.50
2023-02-17T07:13:46.305Z,3.60
2023-02-17T07:16:14.878Z,3.70
2023-02-17T07:18:42.217Z,3.90
2023-02-17T07:21:10.250Z,4.00
2023-02-17T07:23:39.058Z,4.20
2023-02-17T07:26:09.294Z,4.30
2023-02-17T07:28:37.506Z,4.30
2023-02-17T07:31:09.680Z,4.40
2023-02-17T07:33:37.484Z,4.50
2023-02-17T07:36:14.669Z,4.50
2023-02-17T07:38:42.221Z,4.50
2023-02-17T07:41:15.288Z,4.60
2023-02-17T07:43:42.659Z,4.70
2023-02-17T07:46:10.633Z,4.80
2023-02-17T07:48:38.368Z,4.90
2023-02-17T07:51:14.383Z,5.00
2023-02-17T07:53:42.209Z,5.00
2023-02-17T07:56:12.147Z,5.10
2023-02-17T07:58:40.763Z,5.20
2023-02-17T08:01:16.132Z,5.30
2023-02-17T08:03:43.405Z,5.40
2023-02-17T08:06:15.434Z,5.60
2023-02-17T08:09:01.093Z,5.80
2023-02-17T08:11:48.912Z,6.00
2023-02-17T08:14:17.897Z,6.20
2023-02-17T08:16:45.301Z,6.40
2023-02-17T08:19:13.322Z,6.50
2023-02-17T08:21:40.616Z,6.60
2023-02-17T08:24:08.016Z,6.70
2023-02-17T08:26:35.226Z,6.90
2023-02-17T08:29:02.757Z,7.00
2023-02-17T08:31:35.704Z,7.20
2023-02-17T08:34:05.411Z,7.30
2023-02-17T08:36:33.041Z,7.40
2023-02-17T08:39:00.295Z,7.50
2023-02-17T08:41:36.283Z,7.60
2023-02-17T08:44:10.690Z,7.70
2023-02-17T08:46:38.735Z,7.70
2023-02-17T08:49:06.769Z,7.60
2023-02-17T08:51:35.070Z,7.60
2023-02-17T08:54:04.943Z,7.60
2023-02-17T08:56:32.763Z,7.50
2023-02-17T08:59:00.333Z,7.40
2023-02-17T09:01:27.464Z,7.40
2023-02-17T09:03:57.965Z,7.30
2023-02-17T09:06:35.816Z,7.20
2023-02-17T09:09:04.504Z,7.20
2023-02-17T09:11:32.156Z,7.10
2023-02-17T09:13:59.352Z,7.10
2023-02-17T09:16:26.804Z,7.00
2023-02-17T09:18:54.905Z,7.10
2023-02-17T09:21:22.402Z,7.10
2023-02-17T09:23:49.554Z,7.10
2023-02-17T09:26:18.137Z,7.20
2023-02-17T09:28:45.921Z,7.30
2023-02-17T09:31:17.262Z,7.40
2023-02-17T09:33:45.007Z,7.40
2023-02-17T09:36:15.437Z,7.50
2023-02-17T09:38:42.936Z,7.50
2023-02-17T09:41:24.129Z,7.60
2023-02-17T09:43:52.967Z,7.60
2023-02-17T09:46:32.055Z,7.60
2023-02-17T09:49:12.674Z,7.70
2023-02-17T09:51:46.953Z,7.60
2023-02-17T09:54:29.678Z,7.60
2023-02-17T09:56:58.300Z,7.60
2023-02-17T09:59:58.847Z,7.60
2023-02-17T10:02:34.692Z,7.70
2023-02-17T10:05:07.613Z,7.70
2023-02-17T10:07:48.546Z,7.80
2023-02-17T10:10:20.880Z,7.80
2023-02-17T10:12:55.900Z,7.80
2023-02-17T10:15:30.501Z,7.90
2023-02-17T10:18:31.826Z,7.80
2023-02-17T10:21:07.341Z,7.80
2023-02-17T10:23:35.850Z,7.80
2023-02-17T10:26:29.461Z,7.90
2023-02-17T10:29:06.155Z,7.90
2023-02-17T10:32:22.258Z,8.00
2023-02-17T10:34:56.788Z,8.10
2023-02-17T10:37:44.239Z,8.10
2023-02-17T10:40:26.763Z,8.10
2023-02-17T10:42:58.776Z,7.90
2023-02-17T10:45:30.766Z,7.90
2023-02-17T10:48:09.225Z,7.80
2023-02-17T10:50:38.101Z,7.80
2023-02-17T10:53:30.200Z,7.80
2023-02-17T10:56:17.474Z,7.80
2023-02-17T10:58:59.353Z,7.90
2023-02-17T11:01:28.163Z,7.90
2023-02-17T11:04:07.945Z,8.00
2023-02-17T11:06:49.961Z,8.10
2023-02-17T11:09:21.585Z,8.20
2023-02-17T11:11:59.103Z,8.20
2023-02-17T11:14:29.417Z,8.30
2023-02-17T11:17:01.761Z,8.50
2023-02-17T11:19:34.781Z,8.60
2023-02-17T11:22:04.853Z,8.80
2023-02-17T11:24:35.663Z,8.80
2023-02-17T11:27:10.776Z,8.90
2023-02-17T11:29:38.319Z,9.00
2023-02-17T11:32:09.160Z,9.00
2023-02-17T11:34:40.033Z,9.00
2023-02-17T11:37:10.008Z,9.10
2023-02-17T11:39:43.596Z,9.10
2023-02-17T11:42:28.362Z,9.20
2023-02-17T11:45:12.249Z,9.20
2023-02-17T11:47:59.584Z,9.20
2023-02-17T11:50:42.003Z,9.30
2023-02-17T11:53:32.382Z,9.30
2023-02-17T11:56:15.747Z,9.30
2023-02-17T11:59:01.964Z,9.30
2023-02-17T12:01:52.723Z,9.30
2023-02-17T12:04:36.555Z,9.30
2023-02-17T12:07:13.891Z,9.30
2023-02-17T12:09:43.958Z,9.40
2023-02-17T12:12:25.230Z,9.40
2023-02-17T12:15:16.864Z,9.50
2023-02-17T12:17:55.933Z,9.60
2023-02-17T12:20:45.752Z,9.60
2023-02-17T12:23:21.945Z,9.50
2023-02-17T12:26:07.971Z,9.50
2023-02-17T12:28:52.619Z,9.50
2023-02-17T12:31:40.058Z,9.50
2023-02-17T12:34:23.189Z,9.50
2023-02-17T12:36:50.950Z,9.50
2023-02-17T12:39:19.923Z,9.50
2023-02-17T12:41:59.762Z,9.50
2023-02-17T12:44:30.326Z,9.50
2023-02-17T12:47:02.425Z,9.60
2023-02-17T12:49:47.913Z,9.60
2023-02-17T12:52:26.398Z,9.60
2023-02-17T12:55:00.572Z,9.60
2023-02-17T12:57:58.143Z,9.80
2023-02-17T13:00:33.577Z,9.90
2023-02-17T13:03:03.144Z,10.00
2023-02-17T13:06:19.637Z,10.10
2023-02-17T13:08:56.088Z,10.10
2023-02-17T13:11:35.290Z,10.10
2023-02-17T13:14:26.744Z,10.20
2023-02-17T13:16:54.558Z,10.10
2023-02-17T13:19:29.774Z,10.10
2023-02-17T13:21:59.905Z,10.20
2023-02-17T13:24:39.251Z,10.10
2023-02-17T13:27:12.670Z,10.10
2023-02-17T13:29:39.987Z,10.10
2023-02-17T13:32:11.628Z,10.20
2023-02-17T13:34:42.461Z,10.20
2023-02-17T13:37:23.651Z,10.20
2023-02-17T13:39:51.275Z,10.20
2023-02-17T13:42:39.426Z,10.20
2023-02-17T13:45:40.806Z,10.20
2023-02-17T13:48:19.967Z,10.20
2023-02-17T13:50:50.055Z,10.20
2023-02-17T13:53:40.569Z,10.30
2023-02-17T13:56:24.716Z,10.30
2023-02-17T13:58:51.865Z,10.30
2023-02-17T14:01:22.581Z,10.30
2023-02-17T14:03:52.512Z,10.30
2023-02-17T14:06:40.578Z,10.30
2023-02-17T14:09:32.270Z,10.30
2023-02-17T14:12:02.876Z,10.30
2023-02-17T14:14:33.310Z,10.30
2023-02-17T14:17:02.063Z,10.30
2023-02-17T14:19:30.645Z,10.30
2023-02-17T14:22:02.400Z,10.30
2023-02-17T14:24:38.685Z,10.30
2023-02-17T14:27:14.175Z,10.20
2023-02-17T14:29:42.575Z,10.20
2023-02-17T14:32:35.876Z,10.20
2023-02-17T14:35:29.831Z,10.20
2023-02-17T14:38:07.487Z,10.20
2023-02-17T14:40:34.869Z,10.20
2023-02-17T14:43:02.005Z,10.10
2023-02-17T14:45:29.216Z,10.10
2023-02-17T14:47:57.740Z,10.10
2023-02-17T14:50:25.064Z,10.10
2023-02-17T14:52:53.090Z,10.10
2023-02-17T14:55:45.159Z,10.10
2023-02-17T14:58:19.492Z,10.10
2023-02-17T15:00:47.967Z,10.00
2023-02-17T15:03:15.597Z,10.00
2023-02-17T15:05:42.798Z,10.10
2023-02-17T15:08:17.178Z,10.00
2023-02-17T15:10:44.657Z,10.00
2023-02-17T15:13:17.218Z,10.00
2023-02-17T15:15:45.250Z,10.00
2023-02-17T15:18:12.430Z,10.00
2023-02-17T15:20:41.426Z,10.00
2023-02-17T15:23:17.972Z,10.00
2023-02-17T15:25:45.670Z,9.90
2023-02-17T15:28:14.913Z,9.90
2023-02-17T15:30:43.171Z,9.80
2023-02-17T15:33:13.596Z,9.80
2023-02-17T15:35:41.140Z,9.70
2023-02-17T15:38:13.258Z,9.70
2023-02-17T15:40:42.152Z,9.70
2023-02-17T15:43:15.104Z,9.70
2023-02-17T15:45:42.449Z,9.60
2023-02-17T15:48:25.357Z,9.60
2023-02-17T15:50:53.335Z,9.60
2023-02-17T15:53:20.695Z,9.60
2023-02-17T15:55:48.563Z,9.50
2023-02-17T15:58:22.165Z,9.60
2023-02-17T16:00:50.487Z,9.50
2023-02-17T16:03:18.501Z,9.50
2023-02-17T16:05:45.729Z,9.50
2023-02-17T16:08:12.922Z,9.50
2023-02-17T16:10:42.495Z,9.50
2023-02-17T16:13:13.332Z,9.40
2023-02-17T16:15:40.759Z,9.40
2023-02-17T16:18:23.303Z,9.40
2023-02-17T16:20:51.871Z,9.40
2023-02-17T16:23:18.999Z,9.40
2023-02-17T16:25:47.679Z,9.40
2023-02-17T16:28:18.345Z,9.40
2023-02-17T16:30:46.480Z,9.30
2023-02-17T16:33:14.040Z,9.30
2023-02-17T16:35:42.887Z,9.30
2023-02-17T16:38:22.546Z,9.30
2023-02-17T16:40:52.355Z,9.30
2023-02-17T16:43:22.969Z,9.30
2023-02-17T16:46:04.685Z,9.30
2023-02-17T16:48:35.109Z,9.40
2023-02-17T16:51:02.176Z,9.30
2023-02-17T16:53:29.339Z,9.40
2023-02-17T16:55:56.731Z,9.40
2023-02-17T16:58:26.155Z,9.40
2023-02-17T17:00:55.754Z,9.40
2023-02-17T17:03:22.915Z,9.40
2023-02-17T17:05:52.345Z,9.40
2023-02-17T17:08:21.602Z,9.40
2023-02-17T17:10:49.570Z,9.30
2023-02-17T17:13:17.131Z,9.30
2023-02-17T17:15:45.681Z,9.30
2023-02-17T17:18:20.546Z,9.30
2023-02-17T17:20:47.835Z,9.30
2023-02-17T17:23:15.698Z,9.30
2023-02-17T17:25:48.669Z,9.30
2023-02-17T17:28:35.813Z,9.30
2023-02-17T17:31:03.917Z,9.40
2023-02-17T17:33:30.964Z,9.40
2023-02-17T17:35:58.290Z,9.40
2023-02-17T17:38:25.389Z,9.40
2023-02-17T17:40:53.482Z,9.40
2023-02-17T17:43:22.056Z,9.40
2023-02-17T17:45:50.723Z,9.40
2023-02-17T17:48:18.880Z,9.30
2023-02-17T17:50:48.438Z,9.30
2023-02-17T17:53:15.617Z,9.30
2023-02-17T17:55:42.711Z,9.30
2023-02-17T17:58:09.915Z,9.20
2023-02-17T18:00:37.192Z,9.20
2023-02-17T18:03:05.127Z,9.20
2023-02-17T18:05:32.480Z,9.20
2023-02-17T18:08:00.788Z,9.20
2023-02-17T18:10:27.978Z,9.10
2023-02-17T18:12:55.696Z,9.10
2023-02-17T18:15:22.862Z,9.10
2023-02-17T18:17:52.365Z,9.10
2023-02-17T18:20:19.745Z,9.10
2023-02-17T18:22:46.958Z,9.10
2023-02-17T18:25:15.055Z,9.10
2023-02-17T18:27:46.008Z,9.00
2023-02-17T18:30:17.757Z,9.00
2023-02-17T18:32:45.762Z,9.00
2023-02-17T18:35:13.773Z,9.00
2023-02-17T18:37:41.445Z,9.00
2023-02-17T18:40:13.796Z,9.00
2023-02-17T18:42:42.654Z,9.00
2023-02-17T18:45:10.047Z,9.00
2023-02-17T18:47:37.643Z,8.90
2023-02-17T18:50:07.361Z,8.90
2023-02-17T18:52:34.547Z,8.90
2023-02-17T18:55:01.641Z,8.90
2023-02-17T18:57:28.784Z,8.90
2023-02-17T18:59:56.061Z,8.90
2023-02-17T19:02:23.716Z,8.90
2023-02-17T19:04:54.055Z,8.90
2023-02-17T19:07:22.644Z,8.90
2023-02-17T19:09:54.594Z,8.90
2023-02-17T19:12:21.806Z,8.90
2023-02-17T19:14:53.212Z,8.90
2023-02-17T19:17:20.434Z,8.80
2023-02-17T19:19:47.861Z,8.90
2023-02-17T19:22:14.984Z,8.90
2023-02-17T19:24:42.765Z,8.90
2023-02-17T19:27:10.616Z,8.90
2023-02-17T19:29:37.814Z,8.90
2023-02-17T19:32:05.098Z,8.90
2023-02-17T19:34:32.479Z,8.90
2023-02-17T19:36:59.668Z,8.80
2023-02-17T19:39:26.859Z,8.80
2023-02-17T19:41:54.083Z,8.80
2023-02-17T19:44:21.307Z,8.80
2023-02-17T19:46:48.659Z,8.80
2023-02-17T19:49:15.896Z,8.80
2023-02-17T19:51:42.994Z,8.80
2023-02-17T19:54:10.143Z,8.80
2023-02-17T19:56:39.041Z,8.80
2023-02-17T19:59:06.190Z,8.80
2023-02-17T20:01:34.481Z,8.80
2023-02-17T20:04:04.590Z,8.70
2023-02-17T20:06:39.984Z,8.70
2023-02-17T20:09:11.455Z,8.70
2023-02-17T20:11:38.948Z,8.70
2023-02-17T20:14:06.415Z,8.60
2023-02-17T20:16:34.082Z,8.60
2023-02-17T20:19:02.234Z,8.60
2023-02-17T20:21:31.625Z,8.50
2023-02-17T20:23:59.622Z,8.50
2023-02-17T20:26:30.072Z,8.60
2023-02-17T20:28:57.592Z,8.60
2023-02-17T20:31:26.121Z,8.80
2023-02-17T20:33:53.864Z,9.00
2023-02-17T20:36:22.308Z,9.30
2023-02-17T20:38:50.292Z,9.50
2023-02-17T20:41:20.731Z,9.70
2023-02-17T20:43:48.192Z,9.90
2023-02-17T20:46:26.614Z,10.10
2023-02-17T20:48:54.399Z,10.30
2023-02-17T20:51:22.211Z,10.50
2023-02-17T20:53:49.703Z,10.60
2023-02-17T20:56:20.125Z,10.70
2023-02-17T20:58:47.464Z,10.80
2023-02-17T21:01:14.885Z,10.90
2023-02-17T21:03:42.164Z,11.00
2023-02-17T21:06:38.097Z,11.10
2023-02-17T21:09:10.034Z,11.20
2023-02-17T21:11:37.237Z,11.40
2023-02-17T21:14:04.363Z,11.50
2023-02-17T21:16:32.529Z,11.60
2023-02-17T21:19:01.037Z,11.70
2023-02-17T21:21:29.156Z,11.80
2023-02-17T21:23:57.422Z,11.90
2023-02-17T21:26:24.819Z,11.90
2023-02-17T21:28:52.094Z,11.90
2023-02-17T21:31:19.891Z,11.90
2023-02-17T21:33:47.181Z,11.90
2023-02-17T21:36:16.945Z,11.90
2023-02-17T21:38:44.934Z,12.00
2023-02-17T21:41:15.201Z,12.00
2023-02-17T21:44:01.117Z,12.00
2023-02-17T21:46:30.321Z,12.00
2023-02-17T21:48:59.362Z,12.00
2023-02-17T21:51:27.408Z,12.00
2023-02-17T21:53:54.920Z,12.10
2023-02-17T21:56:23.012Z,12.10
2023-02-17T21:58:52.751Z,12.10
2023-02-17T22:01:21.499Z,12.10
2023-02-17T22:03:48.897Z,12.10
2023-02-17T22:06:22.596Z,12.10
2023-02-17T22:08:50.051Z,12.10
2023-02-17T22:11:19.982Z,12.10
2023-02-17T22:13:47.385Z,12.10
2023-02-17T22:16:14.904Z,12.10
2023-02-17T22:18:42.047Z,12.20
2023-02-17T22:21:12.338Z,12.20
2023-02-17T22:23:41.333Z,12.20
2023-02-17T22:26:10.953Z,12.20
2023-02-17T22:28:38.268Z,12.20
2023-02-17T22:31:06.703Z,12.30
2023-02-17T22:33:34.525Z,12.40
2023-02-17T22:36:07.560Z,12.40
2023-02-17T22:38:34.997Z,12.40
2023-02-17T22:41:10.741Z,12.40
2023-02-17T22:43:40.736Z,12.40
2023-02-17T22:46:09.882Z,12.50
2023-02-17T22:48:38.709Z,12.50
2023-02-17T22:51:07.676Z,12.60
2023-02-17T22:53:36.184Z,12.50
2023-02-17T22:56:04.154Z,12.60
2023-02-17T22:58:32.125Z,12.70
2023-02-17T23:01:03.744Z,12.70
2023-02-17T23:03:30.869Z,12.80
2023-02-17T23:06:13.550Z,12.80
2023-02-17T23:08:41.623Z,12.80
2023-02-17T23:11:10.707Z,12.90
2023-02-17T23:13:38.144Z,12.90
2023-02-17T23:16:07.221Z,12.90
2023-02-17T23:18:36.323Z,12.90
2023-02-17T23:21:13.361Z,13.00
2023-02-17T23:23:40.525Z,13.00
2023-02-17T23:26:08.095Z,13.00
2023-02-17T23:28:35.520Z,13.00
2023-02-17T23:31:02.915Z,13.10
2023-02-17T23:33:30.184Z,13.10
2023-02-17T23:35:57.286Z,13.10
2023-02-17T23:38:24.453Z,13.10
2023-02-17T23:40:52.937Z,13.20
2023-02-17T23:43:20.155Z,13.10
2023-02-17T23:45:47.293Z,13.10
2023-02-17T23:48:15.219Z,13.20
2023-02-17T23:50:42.700Z,13.20
2023-02-17T23:53:09.825Z,13.20
2023-02-17T23:55:36.942Z,13.20
2023-02-17T23:58:04.125Z,13.20
